14°C Temp
12°C Dewpoint
% Humidity
Temperature
3 KM/H
2 MPH
2 KTS
360°
Due North

Wind Speed
Clear
Conditions
Pressure 1004.92 (hPa) - 29.68 (in)
Visibility 4.4 (mi) - 7.0 (km)

Current Conditions
EDDL
Location Düsseldorf International (12km)
Metar :EDDL 190550Z 36002KT 7000 NSC 14/12 Q1005 NOSIG
Sun 19th May 06:50 am

Airport
  Metar Aviation API Data Provided by https://www.checkwx.com/ PHP scripts by weather34.com ©2019